sensor_id;sensor_type;location;lat;lon;timestamp;pressure;altitude;pressure_sealevel;temperature;humidity
50859;BME280;36826;47.514;19.056;2022-08-19T00:01:34;99596.88;;;26.81;51.76
50859;BME280;36826;47.514;19.056;2022-08-19T00:04:03;99587.84;;;26.86;51.94
50859;BME280;36826;47.514;19.056;2022-08-19T00:06:29;99596.66;;;26.83;51.87
50859;BME280;36826;47.514;19.056;2022-08-19T00:08:56;99592.47;;;26.80;51.61
50859;BME280;36826;47.514;19.056;2022-08-19T00:11:21;99596.88;;;26.81;52.21
50859;BME280;36826;47.514;19.056;2022-08-19T00:13:48;99593.50;;;26.74;52.45
50859;BME280;36826;47.514;19.056;2022-08-19T00:16:16;99592.41;;;26.75;52.25
50859;BME280;36826;47.514;19.056;2022-08-19T00:18:44;99593.41;;;26.69;52.30
50859;BME280;36826;47.514;19.056;2022-08-19T00:21:09;99589.22;;;26.61;52.54
50859;BME280;36826;47.514;19.056;2022-08-19T00:23:35;99590.25;;;26.55;52.93
50859;BME280;36826;47.514;19.056;2022-08-19T00:26:03;99601.44;;;26.48;53.38
50859;BME280;36826;47.514;19.056;2022-08-19T00:28:29;99588.59;;;26.54;53.56
50859;BME280;36826;47.514;19.056;2022-08-19T00:30:55;99594.38;;;26.57;53.39
50859;BME280;36826;47.514;19.056;2022-08-19T00:33:20;99593.22;;;26.53;53.20
50859;BME280;36826;47.514;19.056;2022-08-19T00:35:46;99597.59;;;26.49;53.92
50859;BME280;36826;47.514;19.056;2022-08-19T00:38:12;99592.41;;;26.53;53.96
50859;BME280;36826;47.514;19.056;2022-08-19T00:40:37;99593.19;;;26.48;53.80
50859;BME280;36826;47.514;19.056;2022-08-19T00:43:08;99587.63;;;26.43;54.00
50859;BME280;36826;47.514;19.056;2022-08-19T00:45:33;99585.72;;;26.43;54.22
50859;BME280;36826;47.514;19.056;2022-08-19T00:48:01;99589.38;;;26.49;54.10
50859;BME280;36826;47.514;19.056;2022-08-19T00:50:30;99590.19;;;26.49;54.01
50859;BME280;36826;47.514;19.056;2022-08-19T00:52:56;99581.91;;;26.44;54.60
50859;BME280;36826;47.514;19.056;2022-08-19T00:55:24;99581.38;;;26.47;54.44
50859;BME280;36826;47.514;19.056;2022-08-19T00:57:57;99580.47;;;26.42;54.78
50859;BME280;36826;47.514;19.056;2022-08-19T01:00:26;99577.69;;;26.37;54.71
50859;BME280;36826;47.514;19.056;2022-08-19T01:02:53;99583.06;;;26.26;55.22
50859;BME280;36826;47.514;19.056;2022-08-19T01:05:24;99575.13;;;26.30;55.47
50859;BME280;36826;47.514;19.056;2022-08-19T01:07:53;99568.59;;;26.36;55.15
50859;BME280;36826;47.514;19.056;2022-08-19T01:10:21;99573.84;;;26.38;55.26
50859;BME280;36826;47.514;19.056;2022-08-19T01:12:49;99580.34;;;26.31;55.56
50859;BME280;36826;47.514;19.056;2022-08-19T01:15:19;99585.25;;;26.29;55.46
50859;BME280;36826;47.514;19.056;2022-08-19T01:17:47;99587.13;;;26.24;55.50
50859;BME280;36826;47.514;19.056;2022-08-19T01:20:15;99580.84;;;26.28;55.73
50859;BME280;36826;47.514;19.056;2022-08-19T01:22:45;99573.06;;;26.20;55.72
50859;BME280;36826;47.514;19.056;2022-08-19T01:25:16;99573.25;;;26.13;56.24
50859;BME280;36826;47.514;19.056;2022-08-19T01:27:45;99567.34;;;26.04;56.93
50859;BME280;36826;47.514;19.056;2022-08-19T01:30:16;99574.94;;;25.97;58.14
50859;BME280;36826;47.514;19.056;2022-08-19T01:32:42;99574.28;;;25.90;59.23
50859;BME280;36826;47.514;19.056;2022-08-19T01:35:08;99574.47;;;25.83;61.72
50859;BME280;36826;47.514;19.056;2022-08-19T01:40:12;99565.00;;;25.74;62.98
50859;BME280;36826;47.514;19.056;2022-08-19T01:42:37;99565.50;;;25.71;62.98
50859;BME280;36826;47.514;19.056;2022-08-19T01:45:04;99563.03;;;25.69;62.76
50859;BME280;36826;47.514;19.056;2022-08-19T01:47:31;99555.22;;;25.61;63.23
50859;BME280;36826;47.514;19.056;2022-08-19T01:49:58;99559.28;;;25.58;63.35
50859;BME280;36826;47.514;19.056;2022-08-19T01:52:23;99560.53;;;25.51;63.49
50859;BME280;36826;47.514;19.056;2022-08-19T01:54:48;99543.44;;;25.43;63.52
50859;BME280;36826;47.514;19.056;2022-08-19T01:57:14;99536.63;;;25.46;64.62
50859;BME280;36826;47.514;19.056;2022-08-19T01:59:42;99541.28;;;25.46;65.48
50859;BME280;36826;47.514;19.056;2022-08-19T02:02:08;99537.28;;;25.36;65.53
50859;BME280;36826;47.514;19.056;2022-08-19T02:04:34;99547.38;;;25.36;66.03
50859;BME280;36826;47.514;19.056;2022-08-19T02:07:00;99543.75;;;25.30;66.60
50859;BME280;36826;47.514;19.056;2022-08-19T02:09:26;99537.09;;;25.26;67.85
50859;BME280;36826;47.514;19.056;2022-08-19T02:11:52;99537.59;;;25.23;69.32
50859;BME280;36826;47.514;19.056;2022-08-19T02:14:18;99523.31;;;25.21;71.33
50859;BME280;36826;47.514;19.056;2022-08-19T02:16:43;99521.81;;;25.13;71.49
50859;BME280;36826;47.514;19.056;2022-08-19T02:19:09;99525.63;;;25.12;72.50
50859;BME280;36826;47.514;19.056;2022-08-19T02:21:35;99533.00;;;25.11;74.10
50859;BME280;36826;47.514;19.056;2022-08-19T02:24:01;99539.66;;;24.99;75.90
50859;BME280;36826;47.514;19.056;2022-08-19T02:26:27;99528.25;;;24.90;77.07
50859;BME280;36826;47.514;19.056;2022-08-19T02:28:53;99521.28;;;24.82;78.33
50859;BME280;36826;47.514;19.056;2022-08-19T02:31:21;99517.63;;;24.76;77.87
50859;BME280;36826;47.514;19.056;2022-08-19T02:33:47;99518.09;;;24.73;77.53
50859;BME280;36826;47.514;19.056;2022-08-19T02:36:15;99524.53;;;24.67;77.43
50859;BME280;36826;47.514;19.056;2022-08-19T02:38:41;99534.31;;;24.63;77.23
50859;BME280;36826;47.514;19.056;2022-08-19T02:41:12;99529.56;;;24.58;76.96
50859;BME280;36826;47.514;19.056;2022-08-19T02:43:39;99530.31;;;24.54;76.99
50859;BME280;36826;47.514;19.056;2022-08-19T02:46:20;99532.13;;;24.48;76.38
50859;BME280;36826;47.514;19.056;2022-08-19T02:48:52;99534.59;;;24.49;75.71
50859;BME280;36826;47.514;19.056;2022-08-19T02:51:21;99541.75;;;24.50;74.87
50859;BME280;36826;47.514;19.056;2022-08-19T02:53:47;99539.25;;;24.49;74.84
50859;BME280;36826;47.514;19.056;2022-08-19T02:56:13;99540.56;;;24.46;74.73
50859;BME280;36826;47.514;19.056;2022-08-19T02:58:40;99551.03;;;24.49;74.64
50859;BME280;36826;47.514;19.056;2022-08-19T03:01:06;99559.72;;;24.46;74.61
50859;BME280;36826;47.514;19.056;2022-08-19T03:03:31;99564.13;;;24.47;74.37
50859;BME280;36826;47.514;19.056;2022-08-19T03:06:12;99561.91;;;24.44;74.49
50859;BME280;36826;47.514;19.056;2022-08-19T03:08:40;99562.97;;;24.43;74.39
50859;BME280;36826;47.514;19.056;2022-08-19T03:11:11;99552.97;;;24.37;74.18
50859;BME280;36826;47.514;19.056;2022-08-19T03:13:37;99570.47;;;24.36;74.70
50859;BME280;36826;47.514;19.056;2022-08-19T03:16:04;99565.69;;;24.43;73.97
50859;BME280;36826;47.514;19.056;2022-08-19T03:18:30;99569.31;;;24.32;74.73
50859;BME280;36826;47.514;19.056;2022-08-19T03:20:56;99572.88;;;24.32;74.59
50859;BME280;36826;47.514;19.056;2022-08-19T03:23:22;99575.47;;;24.27;75.31
50859;BME280;36826;47.514;19.056;2022-08-19T03:25:49;99582.75;;;24.21;75.41
50859;BME280;36826;47.514;19.056;2022-08-19T03:28:15;99584.06;;;24.19;75.50
50859;BME280;36826;47.514;19.056;2022-08-19T03:30:42;99577.78;;;24.18;76.04
50859;BME280;36826;47.514;19.056;2022-08-19T03:33:09;99578.13;;;24.22;76.01
50859;BME280;36826;47.514;19.056;2022-08-19T03:35:37;99578.59;;;24.19;76.25
50859;BME280;36826;47.514;19.056;2022-08-19T03:38:05;99586.00;;;24.18;75.83
50859;BME280;36826;47.514;19.056;2022-08-19T03:40:36;99588.59;;;24.13;76.39
50859;BME280;36826;47.514;19.056;2022-08-19T03:43:02;99587.53;;;24.14;76.47
50859;BME280;36826;47.514;19.056;2022-08-19T03:45:28;99588.72;;;24.18;76.43
50859;BME280;36826;47.514;19.056;2022-08-19T03:47:55;99591.09;;;24.15;76.58
50859;BME280;36826;47.514;19.056;2022-08-19T03:50:20;99591.69;;;24.17;76.49
50859;BME280;36826;47.514;19.056;2022-08-19T03:52:49;99593.59;;;24.16;76.98
50859;BME280;36826;47.514;19.056;2022-08-19T03:55:16;99583.59;;;24.22;76.62
50859;BME280;36826;47.514;19.056;2022-08-19T03:57:41;99593.81;;;24.27;76.39
50859;BME280;36826;47.514;19.056;2022-08-19T04:00:07;99605.09;;;24.30;75.85
50859;BME280;36826;47.514;19.056;2022-08-19T04:02:33;99599.41;;;24.32;76.19
50859;BME280;36826;47.514;19.056;2022-08-19T04:04:58;99590.47;;;24.36;75.68
50859;BME280;36826;47.514;19.056;2022-08-19T04:07:24;99598.28;;;24.45;74.53
50859;BME280;36826;47.514;19.056;2022-08-19T04:09:49;99596.00;;;24.54;74.31
50859;BME280;36826;47.514;19.056;2022-08-19T04:12:17;99615.97;;;24.66;73.73
50859;BME280;36826;47.514;19.056;2022-08-19T04:14:44;99609.41;;;24.79;72.50
50859;BME280;36826;47.514;19.056;2022-08-19T04:17:09;99616.50;;;24.92;71.01
50859;BME280;36826;47.514;19.056;2022-08-19T04:19:35;99607.81;;;24.95;70.62
50859;BME280;36826;47.514;19.056;2022-08-19T04:22:01;99623.94;;;25.08;69.68
50859;BME280;36826;47.514;19.056;2022-08-19T04:24:27;99625.69;;;25.15;69.10
50859;BME280;36826;47.514;19.056;2022-08-19T04:26:53;99621.13;;;25.37;67.75
50859;BME280;36826;47.514;19.056;2022-08-19T04:29:21;99618.81;;;25.29;67.43
50859;BME280;36826;47.514;19.056;2022-08-19T04:31:49;99611.91;;;25.55;66.36
50859;BME280;36826;47.514;19.056;2022-08-19T04:34:17;99610.56;;;25.58;65.62
50859;BME280;36826;47.514;19.056;2022-08-19T04:36:45;99612.28;;;25.64;65.23
50859;BME280;36826;47.514;19.056;2022-08-19T04:39:15;99629.50;;;26.11;63.40
50859;BME280;36826;47.514;19.056;2022-08-19T04:41:41;99630.22;;;26.68;61.17
50859;BME280;36826;47.514;19.056;2022-08-19T04:44:25;99633.88;;;27.23;58.32
50859;BME280;36826;47.514;19.056;2022-08-19T04:46:51;99635.09;;;27.65;56.25
50859;BME280;36826;47.514;19.056;2022-08-19T04:49:19;99626.50;;;27.94;54.70
50859;BME280;36826;47.514;19.056;2022-08-19T04:51:47;99626.97;;;28.23;54.18
50859;BME280;36826;47.514;19.056;2022-08-19T04:54:13;99621.31;;;28.45;52.63
50859;BME280;36826;47.514;19.056;2022-08-19T04:56:40;99625.75;;;28.57;52.20
50859;BME280;36826;47.514;19.056;2022-08-19T04:59:05;99622.81;;;28.15;52.58
50859;BME280;36826;47.514;19.056;2022-08-19T05:01:32;99627.47;;;28.15;52.35
50859;BME280;36826;47.514;19.056;2022-08-19T05:03:59;99631.28;;;28.62;51.16
50859;BME280;36826;47.514;19.056;2022-08-19T05:06:27;99629.78;;;29.13;50.08
50859;BME280;36826;47.514;19.056;2022-08-19T05:08:53;99624.91;;;29.61;48.52
50859;BME280;36826;47.514;19.056;2022-08-19T05:11:25;99630.91;;;29.89;47.85
50859;BME280;36826;47.514;19.056;2022-08-19T05:13:54;99627.50;;;30.54;46.40
50859;BME280;36826;47.514;19.056;2022-08-19T05:16:21;99633.50;;;30.72;45.27
50859;BME280;36826;47.514;19.056;2022-08-19T05:18:48;99630.81;;;31.06;44.51
50859;BME280;36826;47.514;19.056;2022-08-19T05:21:33;99634.09;;;31.88;43.32
50859;BME280;36826;47.514;19.056;2022-08-19T05:24:18;99633.53;;;32.16;41.52
50859;BME280;36826;47.514;19.056;2022-08-19T05:26:46;99630.47;;;32.17;41.60
50859;BME280;36826;47.514;19.056;2022-08-19T05:29:14;99637.50;;;32.58;41.25
50859;BME280;36826;47.514;19.056;2022-08-19T05:31:40;99631.72;;;33.17;39.57
50859;BME280;36826;47.514;19.056;2022-08-19T05:34:06;99626.19;;;32.73;39.52
50859;BME280;36826;47.514;19.056;2022-08-19T05:36:40;99623.63;;;33.40;38.32
50859;BME280;36826;47.514;19.056;2022-08-19T05:39:10;99636.47;;;34.30;37.62
50859;BME280;36826;47.514;19.056;2022-08-19T05:41:41;99628.91;;;34.49;36.80
50859;BME280;36826;47.514;19.056;2022-08-19T05:44:07;99634.25;;;35.33;34.75
50859;BME280;36826;47.514;19.056;2022-08-19T05:46:35;99636.13;;;35.60;34.50
50859;BME280;36826;47.514;19.056;2022-08-19T05:49:03;99639.44;;;36.34;33.60
50859;BME280;36826;47.514;19.056;2022-08-19T05:51:29;99632.69;;;36.18;33.25
50859;BME280;36826;47.514;19.056;2022-08-19T05:53:54;99639.44;;;36.66;32.97
50859;BME280;36826;47.514;19.056;2022-08-19T05:56:20;99637.69;;;36.96;31.84
50859;BME280;36826;47.514;19.056;2022-08-19T05:58:45;99638.00;;;37.56;31.33
50859;BME280;36826;47.514;19.056;2022-08-19T06:01:16;99639.78;;;36.82;31.55
50859;BME280;36826;47.514;19.056;2022-08-19T06:03:42;99640.59;;;36.91;31.39
50859;BME280;36826;47.514;19.056;2022-08-19T06:06:10;99642.25;;;35.94;32.76
50859;BME280;36826;47.514;19.056;2022-08-19T06:08:37;99631.38;;;36.64;32.52
50859;BME280;36826;47.514;19.056;2022-08-19T06:14:10;99632.13;;;37.05;31.22
50859;BME280;36826;47.514;19.056;2022-08-19T06:16:39;99632.44;;;37.21;31.25
50859;BME280;36826;47.514;19.056;2022-08-19T06:19:14;99637.06;;;37.43;30.75
50859;BME280;36826;47.514;19.056;2022-08-19T06:21:44;99632.78;;;38.11;29.70
50859;BME280;36826;47.514;19.056;2022-08-19T06:24:12;99641.78;;;38.86;28.89
50859;BME280;36826;47.514;19.056;2022-08-19T06:26:40;99636.63;;;39.85;28.16
50859;BME280;36826;47.514;19.056;2022-08-19T06:29:08;99637.53;;;39.22;27.61
50859;BME280;36826;47.514;19.056;2022-08-19T06:31:35;99625.78;;;37.87;29.88
50859;BME280;36826;47.514;19.056;2022-08-19T06:34:04;99622.84;;;36.87;30.88
50859;BME280;36826;47.514;19.056;2022-08-19T06:36:33;99612.91;;;37.30;30.31
50859;BME280;36826;47.514;19.056;2022-08-19T06:39:05;99618.94;;;37.58;29.88
50859;BME280;36826;47.514;19.056;2022-08-19T06:41:35;99618.31;;;36.33;31.47
50859;BME280;36826;47.514;19.056;2022-08-19T06:44:00;99624.59;;;37.97;29.93
50859;BME280;36826;47.514;19.056;2022-08-19T06:46:26;99624.47;;;39.35;28.31
50859;BME280;36826;47.514;19.056;2022-08-19T06:48:52;99615.88;;;40.48;26.61
50859;BME280;36826;47.514;19.056;2022-08-19T06:51:20;99617.34;;;40.95;26.32
50859;BME280;36826;47.514;19.056;2022-08-19T06:53:47;99616.63;;;40.20;27.11
50859;BME280;36826;47.514;19.056;2022-08-19T06:56:20;99612.59;;;40.09;27.36
50859;BME280;36826;47.514;19.056;2022-08-19T06:58:46;99616.81;;;40.15;26.93
50859;BME280;36826;47.514;19.056;2022-08-19T07:01:12;99621.22;;;40.90;25.83
50859;BME280;36826;47.514;19.056;2022-08-19T07:03:38;99626.25;;;41.25;25.68
50859;BME280;36826;47.514;19.056;2022-08-19T07:06:06;99627.94;;;41.71;25.50
50859;BME280;36826;47.514;19.056;2022-08-19T07:08:33;99637.34;;;42.39;24.69
50859;BME280;36826;47.514;19.056;2022-08-19T07:10:59;99635.75;;;42.58;23.95
50859;BME280;36826;47.514;19.056;2022-08-19T07:13:25;99641.06;;;42.11;24.64
50859;BME280;36826;47.514;19.056;2022-08-19T07:15:50;99645.69;;;42.71;24.13
50859;BME280;36826;47.514;19.056;2022-08-19T07:18:19;99651.84;;;43.32;23.53
50859;BME280;36826;47.514;19.056;2022-08-19T07:20:45;99647.63;;;43.85;23.40
50859;BME280;36826;47.514;19.056;2022-08-19T07:23:11;99640.94;;;43.93;22.26
50859;BME280;36826;47.514;19.056;2022-08-19T07:25:37;99649.03;;;44.41;22.09
50859;BME280;36826;47.514;19.056;2022-08-19T07:28:03;99649.91;;;44.22;22.00
50859;BME280;36826;47.514;19.056;2022-08-19T07:30:29;99646.47;;;44.33;22.48
50859;BME280;36826;47.514;19.056;2022-08-19T07:32:54;99646.34;;;44.25;22.28
50859;BME280;36826;47.514;19.056;2022-08-19T07:35:21;99650.47;;;43.85;22.55
50859;BME280;36826;47.514;19.056;2022-08-19T07:37:47;99647.41;;;43.12;22.73
50859;BME280;36826;47.514;19.056;2022-08-19T07:40:12;99643.31;;;44.65;21.97
50859;BME280;36826;47.514;19.056;2022-08-19T07:42:38;99637.75;;;45.29;21.45
50859;BME280;36826;47.514;19.056;2022-08-19T07:45:05;99641.03;;;43.34;22.54
50859;BME280;36826;47.514;19.056;2022-08-19T07:47:31;99634.66;;;43.57;22.94
50859;BME280;36826;47.514;19.056;2022-08-19T07:49:57;99632.97;;;45.03;21.45
50859;BME280;36826;47.514;19.056;2022-08-19T07:52:22;99636.81;;;45.56;20.99
50859;BME280;36826;47.514;19.056;2022-08-19T07:54:48;99630.63;;;46.29;20.42
50859;BME280;36826;47.514;19.056;2022-08-19T07:57:15;99636.56;;;46.13;19.36
50859;BME280;36826;47.514;19.056;2022-08-19T07:59:41;99638.88;;;44.64;20.25
50859;BME280;36826;47.514;19.056;2022-08-19T08:02:08;99637.16;;;43.62;21.38
50859;BME280;36826;47.514;19.056;2022-08-19T08:04:34;99639.28;;;44.39;19.53
50859;BME280;36826;47.514;19.056;2022-08-19T08:07:29;99628.03;;;43.92;20.37
50859;BME280;36826;47.514;19.056;2022-08-19T08:10:13;99625.09;;;43.85;20.65
50859;BME280;36826;47.514;19.056;2022-08-19T08:12:39;99628.19;;;44.50;20.36
50859;BME280;36826;47.514;19.056;2022-08-19T08:15:14;99635.63;;;43.88;20.53
50859;BME280;36826;47.514;19.056;2022-08-19T08:17:42;99635.25;;;42.36;22.19
50859;BME280;36826;47.514;19.056;2022-08-19T08:20:09;99641.69;;;42.21;21.77
50859;BME280;36826;47.514;19.056;2022-08-19T08:22:34;99637.41;;;42.11;22.34
50859;BME280;36826;47.514;19.056;2022-08-19T08:25:21;99643.09;;;41.66;22.14
50859;BME280;36826;47.514;19.056;2022-08-19T08:27:48;99640.13;;;42.91;21.14
50859;BME280;36826;47.514;19.056;2022-08-19T08:30:23;99634.50;;;42.75;21.45
50859;BME280;36826;47.514;19.056;2022-08-19T08:32:49;99640.28;;;42.98;21.05
50859;BME280;36826;47.514;19.056;2022-08-19T08:35:17;99637.47;;;41.82;22.02
50859;BME280;36826;47.514;19.056;2022-08-19T08:37:45;99633.22;;;42.88;20.99
50859;BME280;36826;47.514;19.056;2022-08-19T08:42:39;99626.28;;;42.66;21.25
50859;BME280;36826;47.514;19.056;2022-08-19T08:45:13;99624.75;;;43.24;21.22
50859;BME280;36826;47.514;19.056;2022-08-19T08:47:44;99624.78;;;43.90;19.95
50859;BME280;36826;47.514;19.056;2022-08-19T08:50:18;99620.34;;;42.52;21.40
50859;BME280;36826;47.514;19.056;2022-08-19T08:52:47;99609.63;;;41.77;21.80
50859;BME280;36826;47.514;19.056;2022-08-19T08:55:16;99601.06;;;40.35;23.35
50859;BME280;36826;47.514;19.056;2022-08-19T08:57:52;99593.91;;;40.50;23.20
50859;BME280;36826;47.514;19.056;2022-08-19T09:00:35;99598.34;;;39.43;24.72
50859;BME280;36826;47.514;19.056;2022-08-19T09:03:03;99605.88;;;39.09;25.00
50859;BME280;36826;47.514;19.056;2022-08-19T09:05:55;99610.03;;;39.24;24.80
50859;BME280;36826;47.514;19.056;2022-08-19T09:11:06;99601.44;;;40.33;24.08
50859;BME280;36826;47.514;19.056;2022-08-19T09:16:24;99603.09;;;41.73;22.34
50859;BME280;36826;47.514;19.056;2022-08-19T09:18:54;99597.94;;;41.91;21.77
50859;BME280;36826;47.514;19.056;2022-08-19T09:21:21;99593.28;;;41.67;21.71
50859;BME280;36826;47.514;19.056;2022-08-19T09:23:48;99604.28;;;41.56;21.92
50859;BME280;36826;47.514;19.056;2022-08-19T09:26:17;99594.38;;;40.64;22.80
50859;BME280;36826;47.514;19.056;2022-08-19T09:28:44;99597.44;;;40.22;23.19
50859;BME280;36826;47.514;19.056;2022-08-19T09:31:14;99599.16;;;41.17;22.40
50859;BME280;36826;47.514;19.056;2022-08-19T09:33:40;99593.13;;;40.25;22.99
50859;BME280;36826;47.514;19.056;2022-08-19T09:36:11;99578.34;;;39.32;23.94
50859;BME280;36826;47.514;19.056;2022-08-19T09:38:38;99586.31;;;39.42;24.02
50859;BME280;36826;47.514;19.056;2022-08-19T09:41:09;99587.13;;;39.22;23.97
50859;BME280;36826;47.514;19.056;2022-08-19T09:43:37;99572.66;;;40.37;23.34
50859;BME280;36826;47.514;19.056;2022-08-19T09:46:04;99568.91;;;42.03;21.48
50859;BME280;36826;47.514;19.056;2022-08-19T09:48:32;99571.69;;;40.57;22.53
50859;BME280;36826;47.514;19.056;2022-08-19T09:51:06;99566.13;;;40.08;23.24
50859;BME280;36826;47.514;19.056;2022-08-19T09:53:36;99567.31;;;40.19;23.10
50859;BME280;36826;47.514;19.056;2022-08-19T09:56:03;99558.31;;;40.79;22.26
50859;BME280;36826;47.514;19.056;2022-08-19T09:58:28;99557.19;;;39.68;23.59
50859;BME280;36826;47.514;19.056;2022-08-19T10:00:55;99553.56;;;40.55;22.73
50859;BME280;36826;47.514;19.056;2022-08-19T10:03:21;99545.56;;;40.28;22.90
50859;BME280;36826;47.514;19.056;2022-08-19T10:05:47;99543.13;;;40.80;22.08
50859;BME280;36826;47.514;19.056;2022-08-19T10:08:18;99550.88;;;40.58;22.64
50859;BME280;36826;47.514;19.056;2022-08-19T10:10:44;99556.56;;;40.21;22.98
50859;BME280;36826;47.514;19.056;2022-08-19T10:13:11;99553.13;;;39.78;23.64
50859;BME280;36826;47.514;19.056;2022-08-19T10:15:37;99546.25;;;39.88;23.16
50859;BME280;36826;47.514;19.056;2022-08-19T10:18:06;99556.28;;;39.89;23.11
50859;BME280;36826;47.514;19.056;2022-08-19T10:20:32;99547.13;;;39.21;24.04
50859;BME280;36826;47.514;19.056;2022-08-19T10:22:57;99540.34;;;38.67;24.44
50859;BME280;36826;47.514;19.056;2022-08-19T10:25:25;99533.81;;;38.85;24.55
50859;BME280;36826;47.514;19.056;2022-08-19T10:27:52;99529.56;;;38.36;24.36
50859;BME280;36826;47.514;19.056;2022-08-19T10:30:17;99533.75;;;37.82;24.60
50859;BME280;36826;47.514;19.056;2022-08-19T10:32:43;99522.84;;;37.51;25.31
50859;BME280;36826;47.514;19.056;2022-08-19T10:35:12;99553.13;;;37.22;25.83
50859;BME280;36826;47.514;19.056;2022-08-19T10:37:38;99546.88;;;36.90;26.06
50859;BME280;36826;47.514;19.056;2022-08-19T10:40:05;99527.69;;;36.53;27.03
50859;BME280;36826;47.514;19.056;2022-08-19T10:42:32;99530.97;;;36.64;27.25
50859;BME280;36826;47.514;19.056;2022-08-19T10:44:57;99522.28;;;36.57;27.15
50859;BME280;36826;47.514;19.056;2022-08-19T10:47:23;99532.84;;;36.20;27.25
50859;BME280;36826;47.514;19.056;2022-08-19T10:49:49;99531.16;;;36.01;27.77
50859;BME280;36826;47.514;19.056;2022-08-19T10:52:33;99534.56;;;36.47;26.91
50859;BME280;36826;47.514;19.056;2022-08-19T10:55:00;99536.19;;;36.75;27.07
50859;BME280;36826;47.514;19.056;2022-08-19T10:57:44;99540.97;;;36.65;27.29
50859;BME280;36826;47.514;19.056;2022-08-19T11:00:10;99536.53;;;36.82;26.80
50859;BME280;36826;47.514;19.056;2022-08-19T11:02:36;99537.22;;;36.96;27.32
50859;BME280;36826;47.514;19.056;2022-08-19T11:05:02;99533.56;;;36.52;26.93
50859;BME280;36826;47.514;19.056;2022-08-19T11:07:28;99533.19;;;36.27;27.45
50859;BME280;36826;47.514;19.056;2022-08-19T11:09:53;99526.22;;;36.56;27.08
50859;BME280;36826;47.514;19.056;2022-08-19T11:12:18;99522.91;;;36.89;26.45
50859;BME280;36826;47.514;19.056;2022-08-19T11:14:44;99531.78;;;36.82;26.24
50859;BME280;36826;47.514;19.056;2022-08-19T11:17:10;99532.44;;;36.53;27.03
50859;BME280;36826;47.514;19.056;2022-08-19T11:19:39;99534.63;;;36.16;27.15
50859;BME280;36826;47.514;19.056;2022-08-19T11:22:07;99529.69;;;36.13;27.54
50859;BME280;36826;47.514;19.056;2022-08-19T11:24:35;99534.41;;;35.94;27.51
50859;BME280;36826;47.514;19.056;2022-08-19T11:27:03;99535.56;;;36.02;27.23
50859;BME280;36826;47.514;19.056;2022-08-19T11:29:31;99525.56;;;36.01;27.31
50859;BME280;36826;47.514;19.056;2022-08-19T11:31:56;99527.06;;;35.99;27.16
50859;BME280;36826;47.514;19.056;2022-08-19T11:34:24;99529.41;;;36.14;27.36
50859;BME280;36826;47.514;19.056;2022-08-19T11:36:51;99522.00;;;36.18;27.48
50859;BME280;36826;47.514;19.056;2022-08-19T11:39:19;99528.53;;;36.05;27.36
50859;BME280;36826;47.514;19.056;2022-08-19T11:41:45;99524.28;;;35.67;27.75
50859;BME280;36826;47.514;19.056;2022-08-19T11:44:11;99525.00;;;35.90;27.31
50859;BME280;36826;47.514;19.056;2022-08-19T11:46:39;99533.84;;;35.84;27.11
50859;BME280;36826;47.514;19.056;2022-08-19T11:49:06;99520.50;;;35.63;27.55
50859;BME280;36826;47.514;19.056;2022-08-19T11:51:32;99526.91;;;35.72;27.54
50859;BME280;36826;47.514;19.056;2022-08-19T11:53:59;99512.94;;;36.04;27.00
50859;BME280;36826;47.514;19.056;2022-08-19T11:56:25;99507.28;;;36.27;26.97
50859;BME280;36826;47.514;19.056;2022-08-19T11:58:52;99501.38;;;36.28;26.83
50859;BME280;36826;47.514;19.056;2022-08-19T12:01:19;99500.06;;;36.26;27.00
50859;BME280;36826;47.514;19.056;2022-08-19T12:03:47;99485.50;;;36.46;26.56
50859;BME280;36826;47.514;19.056;2022-08-19T12:06:17;99490.38;;;36.32;26.96
50859;BME280;36826;47.514;19.056;2022-08-19T12:08:45;99496.91;;;36.01;26.77
50859;BME280;36826;47.514;19.056;2022-08-19T12:11:12;99487.13;;;36.21;26.76
50859;BME280;36826;47.514;19.056;2022-08-19T12:13:39;99488.25;;;36.29;26.97
50859;BME280;36826;47.514;19.056;2022-08-19T12:16:27;99489.47;;;36.72;26.71
50859;BME280;36826;47.514;19.056;2022-08-19T12:18:54;99483.34;;;36.87;26.13
50859;BME280;36826;47.514;19.056;2022-08-19T12:21:22;99482.72;;;37.08;26.11
50859;BME280;36826;47.514;19.056;2022-08-19T12:23:50;99491.41;;;36.80;26.23
50859;BME280;36826;47.514;19.056;2022-08-19T12:26:18;99488.63;;;36.80;25.87
50859;BME280;36826;47.514;19.056;2022-08-19T12:28:44;99501.75;;;36.62;25.92
50859;BME280;36826;47.514;19.056;2022-08-19T12:31:10;99497.66;;;36.50;26.29
50859;BME280;36826;47.514;19.056;2022-08-19T12:33:39;99493.56;;;36.65;26.03
50859;BME280;36826;47.514;19.056;2022-08-19T12:36:11;99493.38;;;37.06;25.28
50859;BME280;36826;47.514;19.056;2022-08-19T12:38:38;99491.22;;;37.20;25.39
50859;BME280;36826;47.514;19.056;2022-08-19T12:41:05;99483.50;;;37.08;25.25
50859;BME280;36826;47.514;19.056;2022-08-19T12:43:32;99481.41;;;36.88;26.03
50859;BME280;36826;47.514;19.056;2022-08-19T12:45:57;99479.44;;;36.79;25.51
50859;BME280;36826;47.514;19.056;2022-08-19T12:48:23;99480.09;;;36.67;26.20
50859;BME280;36826;47.514;19.056;2022-08-19T12:50:49;99476.31;;;36.72;26.02
50859;BME280;36826;47.514;19.056;2022-08-19T12:53:14;99474.16;;;36.43;25.92
50859;BME280;36826;47.514;19.056;2022-08-19T12:55:40;99456.63;;;36.33;26.54
50859;BME280;36826;47.514;19.056;2022-08-19T12:58:07;99460.53;;;36.41;26.08
50859;BME280;36826;47.514;19.056;2022-08-19T13:00:33;99460.91;;;36.57;26.01
50859;BME280;36826;47.514;19.056;2022-08-19T13:02:59;99458.47;;;36.47;25.75
50859;BME280;36826;47.514;19.056;2022-08-19T13:05:30;99463.72;;;36.57;25.99
50859;BME280;36826;47.514;19.056;2022-08-19T13:07:57;99466.50;;;36.57;25.64